createdAt,value
2023-02-26T00:02:11.643Z,0.90
2023-02-26T00:04:42.978Z,1.00
2023-02-26T00:07:14.244Z,0.80
2023-02-26T00:09:45.575Z,1.00
2023-02-26T00:12:17.111Z,1.00
2023-02-26T00:14:49.053Z,1.50
2023-02-26T00:17:26.900Z,1.20
2023-02-26T00:19:58.749Z,0.87
2023-02-26T00:22:30.345Z,0.80
2023-02-26T00:25:01.778Z,0.80
2023-02-26T00:27:33.079Z,0.90
2023-02-26T00:30:07.898Z,0.70
2023-02-26T00:32:39.976Z,1.47
2023-02-26T00:35:14.573Z,1.00
2023-02-26T00:38:00.215Z,1.10
2023-02-26T00:40:44.240Z,0.77
2023-02-26T00:43:18.795Z,1.87
2023-02-26T00:46:13.841Z,0.80
2023-02-26T00:49:16.262Z,0.70
2023-02-26T00:51:51.921Z,0.70
2023-02-26T00:54:28.470Z,0.80
2023-02-26T00:56:59.757Z,0.90
2023-02-26T00:59:31.324Z,0.70
2023-02-26T01:02:02.665Z,0.73
2023-02-26T01:04:34.293Z,1.10
2023-02-26T01:07:06.976Z,0.90
2023-02-26T01:09:38.710Z,0.80
2023-02-26T01:12:13.187Z,0.60
2023-02-26T01:14:47.187Z,0.90
2023-02-26T01:17:25.113Z,1.00
2023-02-26T01:20:09.128Z,0.60
2023-02-26T01:22:55.571Z,0.80
2023-02-26T01:25:34.830Z,0.75
2023-02-26T01:28:06.440Z,0.83
2023-02-26T01:30:38.255Z,1.20
2023-02-26T01:33:22.081Z,1.10
2023-02-26T01:36:00.088Z,0.83
2023-02-26T01:39:06.181Z,1.17
2023-02-26T01:41:45.942Z,1.17
2023-02-26T01:44:28.344Z,1.00
2023-02-26T01:47:26.185Z,0.93
2023-02-26T01:49:59.007Z,0.90
2023-02-26T01:53:02.120Z,0.80
2023-02-26T01:55:33.471Z,0.77
2023-02-26T01:58:05.816Z,0.90
2023-02-26T02:00:37.220Z,1.13
2023-02-26T02:03:10.337Z,1.40
2023-02-26T02:05:46.051Z,0.90
2023-02-26T02:08:19.214Z,1.00
2023-02-26T02:10:51.455Z,1.00
2023-02-26T02:13:50.164Z,0.77
2023-02-26T02:16:40.119Z,1.20
2023-02-26T02:19:49.121Z,1.03
2023-02-26T02:22:45.062Z,0.77
2023-02-26T02:25:19.282Z,0.80
2023-02-26T02:28:14.043Z,1.07
2023-02-26T02:31:26.989Z,1.43
2023-02-26T02:34:12.016Z,0.83
2023-02-26T02:36:51.514Z,1.37
2023-02-26T02:39:28.474Z,0.80
2023-02-26T02:42:35.403Z,1.07
2023-02-26T02:45:29.646Z,0.88
2023-02-26T02:48:13.809Z,1.00
2023-02-26T02:50:55.408Z,1.17
2023-02-26T02:53:36.410Z,0.80
2023-02-26T02:56:19.961Z,1.10
2023-02-26T02:59:03.010Z,0.90
2023-02-26T03:01:35.979Z,0.90
2023-02-26T03:04:11.241Z,1.07
2023-02-26T03:06:43.254Z,1.40
2023-02-26T03:09:14.522Z,0.83
2023-02-26T03:11:46.044Z,1.40
2023-02-26T03:14:18.302Z,1.03
2023-02-26T03:16:58.441Z,0.90
2023-02-26T03:20:13.670Z,0.93
2023-02-26T03:22:48.001Z,0.90
2023-02-26T03:25:27.069Z,1.00
2023-02-26T03:28:08.728Z,0.83
2023-02-26T03:30:53.533Z,1.00
2023-02-26T03:33:50.561Z,0.93
2023-02-26T03:36:31.320Z,1.00
2023-02-26T03:39:16.224Z,1.47
2023-02-26T03:41:55.975Z,0.80
2023-02-26T03:44:33.680Z,1.23
2023-02-26T03:47:10.161Z,0.80
2023-02-26T03:49:53.121Z,1.30
2023-02-26T03:52:28.723Z,0.97
2023-02-26T03:55:33.100Z,1.20
2023-02-26T03:58:04.748Z,0.97
2023-02-26T04:00:40.318Z,1.00
2023-02-26T04:04:02.048Z,1.23
2023-02-26T04:06:34.854Z,0.60
2023-02-26T04:09:06.577Z,1.17
2023-02-26T04:11:39.445Z,1.20
2023-02-26T04:14:10.916Z,1.10
2023-02-26T04:16:44.014Z,0.80
2023-02-26T04:19:15.498Z,0.90
2023-02-26T04:21:46.858Z,1.33
2023-02-26T04:24:18.178Z,1.27
2023-02-26T04:26:49.619Z,1.03
2023-02-26T04:29:20.873Z,0.70
2023-02-26T04:31:52.733Z,1.00
2023-02-26T04:34:24.064Z,1.30
2023-02-26T04:36:55.362Z,0.93
2023-02-26T04:39:26.669Z,1.00
2023-02-26T04:41:57.932Z,1.00
2023-02-26T04:44:29.223Z,0.90
2023-02-26T04:47:00.568Z,1.43
2023-02-26T04:49:31.901Z,1.07
2023-02-26T04:52:03.454Z,1.07
2023-02-26T04:54:34.863Z,1.17
2023-02-26T04:57:06.166Z,0.80
2023-02-26T04:59:38.773Z,1.00
2023-02-26T05:02:10.083Z,0.90
2023-02-26T05:04:41.430Z,0.93
2023-02-26T05:07:12.698Z,0.93
2023-02-26T05:09:43.988Z,1.43
2023-02-26T05:12:16.002Z,0.53
2023-02-26T05:14:47.344Z,0.60
2023-02-26T05:17:18.612Z,1.87
2023-02-26T05:19:49.903Z,0.90
2023-02-26T05:22:21.231Z,1.13
2023-02-26T05:24:52.489Z,0.80
2023-02-26T05:27:23.873Z,1.20
2023-02-26T05:29:55.132Z,1.17
2023-02-26T05:32:26.623Z,0.90
2023-02-26T05:34:57.922Z,1.10
2023-02-26T05:37:29.263Z,0.80
2023-02-26T05:40:00.540Z,0.63
2023-02-26T05:42:31.959Z,1.00
2023-02-26T05:45:06.012Z,0.90
2023-02-26T05:47:37.482Z,0.90
2023-02-26T05:50:09.678Z,0.80
2023-02-26T05:52:41.196Z,1.13
2023-02-26T05:55:12.459Z,1.10
2023-02-26T05:57:43.826Z,0.73
2023-02-26T06:00:15.498Z,0.73
2023-02-26T06:02:46.841Z,0.90
2023-02-26T06:05:18.427Z,0.90
2023-02-26T06:07:49.730Z,1.00
2023-02-26T06:10:21.068Z,0.90
2023-02-26T06:12:52.356Z,1.20
2023-02-26T06:15:24.134Z,1.00
2023-02-26T06:17:55.451Z,0.90
2023-02-26T06:20:26.925Z,0.90
2023-02-26T06:22:58.201Z,0.50
2023-02-26T06:25:29.473Z,0.80
2023-02-26T06:28:00.748Z,1.13
2023-02-26T06:30:32.185Z,1.00
2023-02-26T06:33:03.624Z,0.87
2023-02-26T06:35:35.002Z,1.43
2023-02-26T06:38:06.472Z,0.97
2023-02-26T06:40:37.866Z,2.13
2023-02-26T06:43:09.144Z,1.10
2023-02-26T06:45:40.499Z,1.40
2023-02-26T06:48:12.278Z,1.00
2023-02-26T06:50:43.539Z,1.17
2023-02-26T06:53:14.880Z,0.90
2023-02-26T06:55:49.552Z,1.10
2023-02-26T06:58:21.550Z,0.90
2023-02-26T07:00:52.862Z,0.80
2023-02-26T07:03:24.286Z,1.00
2023-02-26T07:05:55.733Z,1.00
2023-02-26T07:08:27.013Z,1.20
2023-02-26T07:10:58.261Z,0.90
2023-02-26T07:13:29.551Z,1.00
2023-02-26T07:16:00.815Z,1.50
2023-02-26T07:18:32.102Z,1.40
2023-02-26T07:21:04.611Z,1.40
2023-02-26T07:23:35.912Z,1.00
2023-02-26T07:26:08.859Z,1.07
2023-02-26T07:28:40.203Z,1.10
2023-02-26T07:31:11.591Z,0.97
2023-02-26T07:33:43.530Z,1.10
2023-02-26T07:36:15.001Z,1.57
2023-02-26T07:38:46.292Z,1.40
2023-02-26T07:41:17.707Z,1.17
2023-02-26T07:43:49.179Z,1.10
2023-02-26T07:46:20.480Z,1.37
2023-02-26T07:48:51.792Z,1.30
2023-02-26T07:51:23.298Z,1.00
2023-02-26T07:53:54.744Z,1.13
2023-02-26T07:56:26.374Z,0.90
2023-02-26T07:58:57.791Z,1.30
2023-02-26T08:01:29.143Z,1.30
2023-02-26T08:04:00.920Z,1.03
2023-02-26T08:06:32.234Z,1.00
2023-02-26T08:09:03.973Z,0.87
2023-02-26T08:11:39.545Z,0.93
2023-02-26T08:14:11.820Z,0.90
2023-02-26T08:16:43.464Z,0.70
2023-02-26T08:19:14.967Z,0.90
2023-02-26T08:21:46.323Z,0.80
2023-02-26T08:24:17.688Z,1.33
2023-02-26T08:26:49.261Z,0.90
2023-02-26T08:29:20.807Z,1.30
2023-02-26T08:31:52.551Z,0.90
2023-02-26T08:34:24.463Z,1.10
2023-02-26T08:36:55.724Z,1.37
2023-02-26T08:39:26.991Z,1.20
2023-02-26T08:41:58.252Z,1.10
2023-02-26T08:44:29.500Z,1.40
2023-02-26T08:47:00.911Z,1.90
2023-02-26T08:49:32.264Z,1.23
2023-02-26T08:52:03.873Z,1.10
2023-02-26T08:54:35.285Z,1.10
2023-02-26T08:57:06.750Z,1.17
2023-02-26T08:59:38.025Z,1.23
2023-02-26T09:02:13.031Z,1.20
2023-02-26T09:04:44.361Z,1.10
2023-02-26T09:07:15.689Z,1.17
2023-02-26T09:09:46.994Z,1.17
2023-02-26T09:12:18.399Z,1.30
2023-02-26T09:14:49.643Z,1.00
2023-02-26T09:17:20.911Z,1.10
2023-02-26T09:19:52.204Z,0.90
2023-02-26T09:22:23.562Z,1.23
2023-02-26T09:24:54.871Z,0.80
2023-02-26T09:27:26.538Z,1.00
2023-02-26T09:29:57.896Z,1.03
2023-02-26T09:32:29.431Z,1.50
2023-02-26T09:35:00.948Z,0.97
2023-02-26T09:37:32.610Z,0.97
2023-02-26T09:40:04.456Z,1.10
2023-02-26T09:42:52.775Z,1.00
2023-02-26T09:45:42.350Z,0.70
2023-02-26T09:48:18.690Z,0.80
2023-02-26T09:50:53.548Z,1.00
2023-02-26T09:53:34.104Z,1.13
2023-02-26T09:56:10.829Z,1.00
2023-02-26T09:58:44.118Z,1.77
2023-02-26T10:01:57.143Z,0.70
2023-02-26T10:05:16.176Z,0.63
2023-02-26T10:08:05.799Z,0.70
2023-02-26T10:11:13.201Z,0.83
2023-02-26T10:13:57.664Z,0.70
2023-02-26T10:16:37.537Z,0.90
2023-02-26T10:19:19.431Z,0.70
2023-02-26T10:21:59.049Z,0.50
2023-02-26T10:24:45.398Z,0.50
2023-02-26T10:27:22.416Z,0.45
2023-02-26T10:30:13.855Z,0.80
2023-02-26T10:33:03.784Z,0.40
2023-02-26T10:35:43.073Z,0.70
2023-02-26T10:38:20.407Z,0.97
2023-02-26T10:41:02.056Z,0.50
2023-02-26T10:43:45.039Z,0.83
2023-02-26T10:46:25.993Z,0.60
2023-02-26T10:49:17.875Z,0.67
2023-02-26T10:51:49.249Z,0.60
2023-02-26T10:54:45.219Z,0.70
2023-02-26T10:57:24.237Z,0.90
2023-02-26T10:59:55.507Z,0.70
2023-02-26T11:02:36.711Z,1.00
2023-02-26T11:05:17.632Z,0.70
2023-02-26T11:07:54.624Z,0.90
2023-02-26T11:10:40.168Z,0.70
2023-02-26T11:13:12.460Z,0.80
2023-02-26T11:15:48.672Z,0.80
2023-02-26T11:18:43.886Z,0.80
2023-02-26T11:21:22.434Z,0.70
2023-02-26T11:24:01.648Z,1.77
2023-02-26T11:26:36.557Z,0.53
2023-02-26T11:29:15.422Z,0.50
2023-02-26T11:31:57.968Z,0.60
2023-02-26T11:34:30.008Z,0.60
2023-02-26T11:37:02.251Z,0.80
2023-02-26T11:39:36.663Z,0.77
2023-02-26T11:42:07.963Z,0.70
2023-02-26T11:44:45.777Z,0.80
2023-02-26T11:47:24.700Z,0.60
2023-02-26T11:50:04.518Z,0.70
2023-02-26T11:52:41.826Z,0.80
2023-02-26T11:55:28.693Z,0.97
2023-02-26T12:00:36.277Z,0.70
2023-02-26T12:05:46.754Z,0.30
2023-02-26T12:08:38.701Z,0.73
2023-02-26T12:11:44.136Z,0.27
2023-02-26T12:14:52.873Z,0.67
2023-02-26T12:17:54.360Z,0.53
2023-02-26T12:20:25.584Z,0.50
2023-02-26T12:23:15.370Z,0.77
2023-02-26T12:25:52.679Z,1.30
2023-02-26T12:28:35.780Z,0.57
2023-02-26T12:31:48.395Z,0.73
2023-02-26T12:34:43.921Z,0.50
2023-02-26T12:37:42.502Z,1.00
2023-02-26T12:40:53.746Z,2.07
2023-02-26T12:43:45.858Z,2.10
2023-02-26T12:46:41.802Z,1.23
2023-02-26T12:49:39.051Z,1.03
2023-02-26T12:52:36.077Z,0.70
2023-02-26T12:55:24.170Z,1.00
2023-02-26T12:58:25.894Z,0.60
2023-02-26T13:01:17.407Z,0.50
2023-02-26T13:04:15.131Z,0.83
2023-02-26T13:07:01.574Z,0.60
2023-02-26T13:09:55.656Z,0.65
2023-02-26T13:12:40.545Z,0.80
2023-02-26T13:15:17.897Z,0.90
2023-02-26T13:17:57.264Z,1.17
2023-02-26T13:20:29.165Z,0.57
2023-02-26T13:23:11.814Z,0.90
2023-02-26T13:25:51.682Z,0.73
2023-02-26T13:28:40.586Z,0.67
2023-02-26T13:31:18.745Z,1.40
2023-02-26T13:33:53.116Z,0.80
2023-02-26T13:36:27.534Z,0.80
2023-02-26T13:39:21.522Z,0.80
2023-02-26T13:42:00.126Z,1.13
2023-02-26T13:45:05.165Z,1.00
2023-02-26T13:48:00.994Z,0.60
2023-02-26T13:50:35.063Z,1.20
2023-02-26T13:53:28.970Z,0.93
2023-02-26T13:56:13.296Z,0.70
2023-02-26T13:58:51.586Z,1.00
2023-02-26T14:01:34.150Z,0.73
2023-02-26T14:04:14.389Z,1.73
2023-02-26T14:06:48.586Z,0.90
2023-02-26T14:09:22.602Z,1.13
2023-02-26T14:12:12.813Z,1.33
2023-02-26T14:15:00.160Z,1.33
2023-02-26T14:17:34.232Z,1.13
2023-02-26T14:20:25.270Z,1.43
2023-02-26T14:23:07.767Z,1.20
2023-02-26T14:25:46.600Z,1.03
2023-02-26T14:28:19.519Z,1.00
2023-02-26T14:31:04.699Z,1.00
2023-02-26T14:33:57.326Z,1.10
2023-02-26T14:36:37.798Z,1.17
2023-02-26T14:39:22.228Z,1.20
2023-02-26T14:42:01.751Z,1.60
2023-02-26T14:44:43.863Z,1.20
2023-02-26T14:47:16.253Z,1.10
2023-02-26T14:49:49.440Z,1.10
2023-02-26T14:52:51.912Z,0.80
2023-02-26T14:55:54.817Z,1.00
2023-02-26T14:58:40.214Z,0.90
2023-02-26T15:01:21.865Z,1.70
2023-02-26T15:04:17.694Z,1.03
2023-02-26T15:07:07.904Z,1.33
2023-02-26T15:10:06.330Z,1.20
2023-02-26T15:12:55.648Z,0.93
2023-02-26T15:15:47.867Z,1.03
2023-02-26T15:18:40.342Z,1.20
2023-02-26T15:21:47.231Z,1.20
2023-02-26T15:24:19.248Z,0.93
2023-02-26T15:26:59.954Z,0.87
2023-02-26T15:29:35.362Z,1.20
2023-02-26T15:32:28.288Z,0.95
2023-02-26T15:35:04.651Z,1.17
2023-02-26T15:40:08.676Z,1.27
2023-02-26T15:42:42.967Z,1.30
2023-02-26T15:45:26.348Z,1.33
2023-02-26T15:48:01.744Z,1.30
2023-02-26T15:50:36.924Z,1.25
2023-02-26T15:53:12.973Z,1.30
2023-02-26T15:55:51.461Z,1.50
2023-02-26T15:58:45.131Z,1.30
2023-02-26T16:01:20.041Z,1.30
2023-02-26T16:03:53.678Z,1.57
2023-02-26T16:06:37.910Z,1.10
2023-02-26T16:09:19.638Z,1.17
2023-02-26T16:11:55.250Z,1.10
2023-02-26T16:14:33.937Z,1.92
2023-02-26T16:17:08.052Z,1.57
2023-02-26T16:19:46.334Z,1.87
2023-02-26T16:22:33.490Z,0.80
2023-02-26T16:25:12.534Z,0.63
2023-02-26T16:27:47.646Z,0.97
2023-02-26T16:30:22.605Z,1.20
2023-02-26T16:32:55.433Z,1.30
2023-02-26T16:35:34.596Z,1.60
2023-02-26T16:38:17.099Z,1.33
2023-02-26T16:40:57.575Z,1.17
2023-02-26T16:43:35.349Z,1.30
2023-02-26T16:46:07.104Z,1.10
2023-02-26T16:48:48.539Z,1.40
2023-02-26T16:51:23.062Z,1.30
2023-02-26T16:54:02.958Z,1.33
2023-02-26T16:56:39.695Z,1.73
2023-02-26T16:59:16.777Z,0.97
2023-02-26T17:02:13.354Z,1.43
2023-02-26T17:04:50.402Z,1.48
2023-02-26T17:07:32.839Z,1.90
2023-02-26T17:10:16.478Z,1.70
2023-02-26T17:12:53.215Z,2.23
2023-02-26T17:15:32.022Z,1.70
2023-02-26T17:18:03.894Z,1.80
2023-02-26T17:20:36.499Z,2.03
2023-02-26T17:23:09.255Z,2.93
2023-02-26T17:25:47.228Z,2.63
2023-02-26T17:28:25.632Z,1.73
2023-02-26T17:30:57.761Z,1.60
2023-02-26T17:33:29.551Z,2.50
2023-02-26T17:36:03.870Z,1.50
2023-02-26T17:38:35.129Z,1.80
2023-02-26T17:41:06.414Z,1.60
2023-02-26T17:43:37.687Z,1.60
2023-02-26T17:46:12.045Z,1.20
2023-02-26T17:48:43.360Z,2.10
2023-02-26T17:51:16.168Z,1.60
2023-02-26T17:53:47.461Z,1.93
2023-02-26T17:56:26.700Z,2.30
2023-02-26T17:58:59.616Z,2.23
2023-02-26T18:01:31.158Z,3.17
2023-02-26T18:04:03.558Z,2.53
2023-02-26T18:06:37.141Z,2.43
2023-02-26T18:09:11.698Z,3.40
2023-02-26T18:11:43.146Z,2.20
2023-02-26T18:14:14.424Z,2.53
2023-02-26T18:16:46.718Z,2.63
2023-02-26T18:19:18.077Z,2.00
2023-02-26T18:21:49.342Z,2.27
2023-02-26T18:24:20.637Z,3.43
2023-02-26T18:26:52.693Z,2.53
2023-02-26T18:29:23.946Z,2.70
2023-02-26T18:31:55.376Z,3.23
2023-02-26T18:34:26.910Z,3.63
2023-02-26T18:36:58.332Z,3.70
2023-02-26T18:39:32.476Z,3.63
2023-02-26T18:42:04.931Z,3.17
2023-02-26T18:44:36.395Z,4.87
2023-02-26T18:47:08.616Z,4.73
2023-02-26T18:49:39.982Z,3.47
2023-02-26T18:52:13.033Z,4.03
2023-02-26T18:54:45.086Z,3.47
2023-02-26T18:57:16.996Z,5.53
2023-02-26T18:59:48.478Z,6.20
2023-02-26T19:02:20.960Z,6.20
2023-02-26T19:04:52.956Z,5.83
2023-02-26T19:07:24.252Z,4.17
2023-02-26T19:09:55.516Z,6.43
2023-02-26T19:12:26.777Z,6.03
2023-02-26T19:15:11.306Z,8.03
2023-02-26T19:17:42.653Z,4.97
2023-02-26T19:20:14.227Z,4.23
2023-02-26T19:22:46.508Z,3.60
2023-02-26T19:25:24.306Z,3.73
2023-02-26T19:27:55.991Z,3.30
2023-02-26T19:30:27.381Z,4.67
2023-02-26T19:32:58.664Z,4.03
2023-02-26T19:35:30.665Z,3.77
2023-02-26T19:38:01.974Z,4.23
2023-02-26T19:40:33.471Z,3.50
2023-02-26T19:43:04.757Z,4.87
2023-02-26T19:45:36.740Z,3.00
2023-02-26T19:48:08.492Z,3.93
2023-02-26T19:50:40.311Z,3.47
2023-02-26T19:53:15.793Z,3.20
2023-02-26T19:55:54.423Z,3.72
2023-02-26T19:58:30.357Z,6.73
2023-02-26T20:01:04.510Z,5.72
2023-02-26T20:03:36.008Z,5.07
2023-02-26T20:06:08.314Z,5.10
2023-02-26T20:08:40.818Z,6.93
2023-02-26T20:11:12.482Z,5.33
2023-02-26T20:13:44.047Z,4.53
2023-02-26T20:16:16.262Z,7.27
2023-02-26T20:18:47.718Z,7.90
2023-02-26T20:21:19.072Z,7.63
2023-02-26T20:23:50.363Z,7.57
2023-02-26T20:26:21.674Z,6.60
2023-02-26T20:28:52.979Z,6.30
2023-02-26T20:31:24.471Z,4.80
2023-02-26T20:33:56.627Z,5.40
2023-02-26T20:36:27.893Z,5.93
2023-02-26T20:39:02.098Z,4.83
2023-02-26T20:41:33.367Z,4.43
2023-02-26T20:44:04.787Z,5.43
2023-02-26T20:46:38.725Z,4.63
2023-02-26T20:49:11.548Z,4.93
2023-02-26T20:51:43.792Z,5.07
2023-02-26T20:54:16.174Z,5.93
2023-02-26T20:56:48.720Z,6.37
2023-02-26T20:59:20.110Z,8.17
2023-02-26T21:01:53.169Z,11.90
2023-02-26T21:04:24.651Z,11.80
2023-02-26T21:07:12.363Z,18.20
2023-02-26T21:09:44.294Z,13.57
2023-02-26T21:12:16.467Z,18.13
2023-02-26T21:14:50.131Z,22.37
2023-02-26T21:17:25.852Z,16.17
2023-02-26T21:19:57.146Z,14.07
2023-02-26T21:22:28.397Z,13.60
2023-02-26T21:24:59.642Z,9.07
2023-02-26T21:27:31.100Z,9.33
2023-02-26T21:30:04.247Z,9.37
2023-02-26T21:32:35.852Z,8.57
2023-02-26T21:35:09.174Z,7.10
2023-02-26T21:37:40.450Z,8.60
2023-02-26T21:40:14.438Z,10.07
2023-02-26T21:42:45.737Z,9.53
2023-02-26T21:45:17.089Z,9.67
2023-02-26T21:47:48.428Z,12.03
2023-02-26T21:50:20.019Z,16.47
2023-02-26T21:52:51.376Z,16.17
2023-02-26T21:55:22.789Z,15.33
2023-02-26T21:57:54.031Z,14.90
2023-02-26T22:00:26.086Z,12.93
2023-02-26T22:02:58.073Z,14.93
2023-02-26T22:05:29.357Z,13.67
2023-02-26T22:08:00.653Z,13.50
2023-02-26T22:10:32.061Z,14.43
2023-02-26T22:13:03.450Z,15.70
2023-02-26T22:15:34.798Z,15.80
2023-02-26T22:18:06.205Z,15.30
2023-02-26T22:20:37.698Z,12.17
2023-02-26T22:23:09.042Z,8.77
2023-02-26T22:25:40.391Z,8.03
2023-02-26T22:28:11.975Z,9.93
2023-02-26T22:30:43.274Z,8.43
2023-02-26T22:33:14.698Z,10.47
2023-02-26T22:35:45.991Z,11.53
2023-02-26T22:38:17.365Z,10.23
2023-02-26T22:40:48.643Z,10.10
2023-02-26T22:43:20.604Z,9.73
2023-02-26T22:45:51.966Z,11.67
2023-02-26T22:48:23.258Z,10.10
2023-02-26T22:50:54.588Z,7.90
2023-02-26T22:53:25.869Z,7.37
2023-02-26T22:55:58.258Z,7.50
2023-02-26T22:58:29.539Z,6.33
2023-02-26T23:01:05.192Z,7.00
2023-02-26T23:03:36.635Z,5.75
2023-02-26T23:06:08.577Z,6.90
2023-02-26T23:08:40.240Z,6.53
2023-02-26T23:11:11.533Z,7.83
2023-02-26T23:13:42.804Z,6.37
2023-02-26T23:16:14.300Z,6.20
2023-02-26T23:18:47.957Z,6.00
2023-02-26T23:21:19.412Z,6.37
2023-02-26T23:23:50.754Z,6.80
2023-02-26T23:26:22.046Z,5.97
2023-02-26T23:28:53.341Z,7.63
2023-02-26T23:31:25.291Z,7.57
2023-02-26T23:33:56.951Z,9.30
2023-02-26T23:36:28.260Z,8.13
2023-02-26T23:38:59.645Z,6.50
2023-02-26T23:41:31.058Z,6.73
2023-02-26T23:44:02.312Z,7.53
2023-02-26T23:46:33.684Z,7.37
2023-02-26T23:49:05.102Z,7.47
2023-02-26T23:51:38.284Z,7.27
2023-02-26T23:54:09.755Z,8.00
2023-02-26T23:56:41.151Z,8.23
2023-02-26T23:59:12.497Z,7.30
